createdAt,value
2023-03-02T00:00:03.804Z,0.59
2023-03-02T00:01:03.761Z,0.59
2023-03-02T00:02:03.753Z,0.58
2023-03-02T00:03:03.736Z,0.55
2023-03-02T00:04:03.778Z,0.50
2023-03-02T00:05:03.720Z,0.47
2023-03-02T00:06:03.757Z,0.43
2023-03-02T00:07:03.705Z,0.40
2023-03-02T00:08:03.681Z,0.39
2023-03-02T00:09:03.723Z,0.36
2023-03-02T00:10:03.718Z,0.32
2023-03-02T00:11:03.657Z,0.28
2023-03-02T00:12:03.644Z,0.28
2023-03-02T00:13:03.624Z,0.28
2023-03-02T00:14:03.651Z,0.31
2023-03-02T00:15:03.616Z,0.34
2023-03-02T00:16:03.716Z,0.39
2023-03-02T00:17:03.596Z,0.41
2023-03-02T00:18:03.612Z,0.40
2023-03-02T00:19:03.586Z,0.41
2023-03-02T00:20:03.547Z,0.44
2023-03-02T00:21:03.561Z,0.43
2023-03-02T00:22:03.575Z,0.43
2023-03-02T00:23:03.562Z,0.41
2023-03-02T00:24:03.526Z,0.43
2023-03-02T00:25:03.507Z,0.41
2023-03-02T00:26:03.512Z,0.40
2023-03-02T00:27:03.708Z,0.40
2023-03-02T00:28:03.484Z,0.44
2023-03-02T00:29:03.463Z,0.44
2023-03-02T00:30:03.505Z,0.44
2023-03-02T00:31:03.514Z,0.43
2023-03-02T00:32:03.450Z,0.47
2023-03-02T00:33:03.490Z,0.55
2023-03-02T00:34:03.405Z,0.59
2023-03-02T00:35:03.399Z,0.60
2023-03-02T00:36:03.507Z,0.62
2023-03-02T00:37:03.430Z,0.69
2023-03-02T00:38:03.374Z,0.69
2023-03-02T00:39:03.390Z,0.73
2023-03-02T00:40:03.400Z,0.73
2023-03-02T00:41:03.328Z,0.77
2023-03-02T00:42:03.344Z,0.77
2023-03-02T00:43:03.320Z,0.81
2023-03-02T00:44:03.331Z,0.87
2023-03-02T00:45:03.356Z,0.91
2023-03-02T00:46:03.316Z,0.91
2023-03-02T00:47:03.398Z,0.91
2023-03-02T00:48:03.294Z,0.88
2023-03-02T00:49:03.269Z,0.91
2023-03-02T00:50:03.263Z,0.88
2023-03-02T00:51:03.250Z,0.91
2023-03-02T00:52:03.258Z,0.91
2023-03-02T00:53:03.229Z,0.86
2023-03-02T00:54:03.227Z,0.84
2023-03-02T00:55:03.217Z,0.80
2023-03-02T00:56:03.251Z,0.77
2023-03-02T00:57:03.160Z,0.74
2023-03-02T00:58:03.178Z,0.70
2023-03-02T00:59:03.158Z,0.73
2023-03-02T01:00:03.215Z,0.76
2023-03-02T01:01:03.186Z,0.73
2023-03-02T01:02:03.187Z,0.68
2023-03-02T01:03:03.210Z,0.76
2023-03-02T01:04:03.119Z,0.81
2023-03-02T01:05:03.103Z,0.83
2023-03-02T01:06:03.104Z,0.84
2023-03-02T01:07:03.074Z,0.83
2023-03-02T01:08:03.116Z,0.81
2023-03-02T01:09:03.053Z,0.80
2023-03-02T01:10:03.054Z,0.76
2023-03-02T01:11:03.040Z,0.76
2023-03-02T01:12:03.046Z,0.73
2023-03-02T01:13:03.034Z,0.68
2023-03-02T01:14:03.050Z,0.65
2023-03-02T01:15:03.017Z,0.63
2023-03-02T01:16:03.125Z,0.60
2023-03-02T01:17:03.021Z,0.58
2023-03-02T01:18:03.031Z,0.55
2023-03-02T01:19:02.968Z,0.52
2023-03-02T01:20:02.945Z,0.55
2023-03-02T01:21:02.940Z,0.52
2023-03-02T01:22:02.936Z,0.49
2023-03-02T01:23:02.934Z,0.50
2023-03-02T01:24:02.938Z,0.47
2023-03-02T01:25:02.948Z,0.49
2023-03-02T01:26:02.935Z,0.47
2023-03-02T01:27:02.869Z,0.47
2023-03-02T01:28:02.872Z,0.49
2023-03-02T01:29:02.881Z,0.47
2023-03-02T01:30:02.874Z,0.44
2023-03-02T01:31:02.850Z,0.46
2023-03-02T01:32:02.889Z,0.44
2023-03-02T01:33:02.867Z,0.44
2023-03-02T01:34:02.843Z,0.43
2023-03-02T01:35:02.809Z,0.43
2023-03-02T01:36:02.850Z,0.41
2023-03-02T01:37:02.795Z,0.40
2023-03-02T01:38:02.775Z,0.41
2023-03-02T01:39:02.804Z,0.41
2023-03-02T01:40:02.800Z,0.40
2023-03-02T01:41:02.775Z,0.41
2023-03-02T01:42:02.745Z,0.41
2023-03-02T01:43:02.740Z,0.40
2023-03-02T01:44:02.711Z,0.43
2023-03-02T01:45:02.715Z,0.40
2023-03-02T01:46:02.883Z,0.39
2023-03-02T01:47:02.684Z,0.37
2023-03-02T01:48:02.703Z,0.34
2023-03-02T01:49:02.716Z,0.31
2023-03-02T01:50:02.706Z,0.29
2023-03-02T01:51:02.659Z,0.32
2023-03-02T01:52:02.647Z,0.28
2023-03-02T01:53:04.635Z,0.29
2023-03-02T01:54:02.644Z,0.25
2023-03-02T01:55:02.621Z,0.23
2023-03-02T01:56:02.619Z,0.21
2023-03-02T01:57:02.605Z,0.22
2023-03-02T01:58:02.585Z,0.16
2023-03-02T01:59:02.595Z,0.19
2023-03-02T02:00:02.554Z,0.18
2023-03-02T02:01:02.539Z,0.19
2023-03-02T02:02:02.542Z,0.16
2023-03-02T02:03:02.553Z,0.15
2023-03-02T02:04:03.079Z,0.16
2023-03-02T02:05:02.507Z,0.15
2023-03-02T02:06:02.487Z,0.12
2023-03-02T02:07:02.468Z,0.15
2023-03-02T02:08:02.497Z,0.15
2023-03-02T02:09:02.460Z,0.15
2023-03-02T02:10:02.499Z,0.23
2023-03-02T02:11:02.485Z,0.25
2023-03-02T02:12:02.431Z,0.28
2023-03-02T02:13:02.418Z,0.34
2023-03-02T02:14:02.403Z,0.34
2023-03-02T02:15:02.417Z,0.36
2023-03-02T02:16:02.401Z,0.36
2023-03-02T02:17:02.452Z,0.36
2023-03-02T02:18:02.392Z,0.34
2023-03-02T02:19:02.386Z,0.32
2023-03-02T02:20:02.356Z,0.36
2023-03-02T02:21:02.384Z,0.34
2023-03-02T02:22:02.350Z,0.34
2023-03-02T02:23:02.325Z,0.36
2023-03-02T02:24:02.293Z,0.37
2023-03-02T02:25:02.294Z,0.34
2023-03-02T02:26:02.324Z,0.34
2023-03-02T02:27:02.320Z,0.32
2023-03-02T02:28:02.260Z,0.28
2023-03-02T02:29:02.295Z,0.29
2023-03-02T02:30:02.250Z,0.31
2023-03-02T02:31:02.232Z,0.28
2023-03-02T02:32:02.503Z,0.29
2023-03-02T02:33:02.248Z,0.28
2023-03-02T02:34:02.283Z,0.28
2023-03-02T02:35:02.211Z,0.29
2023-03-02T02:36:02.271Z,0.28
2023-03-02T02:37:02.181Z,0.29
2023-03-02T02:38:02.197Z,0.29
2023-03-02T02:39:02.174Z,0.31
2023-03-02T02:40:02.170Z,0.31
2023-03-02T02:41:02.214Z,0.31
2023-03-02T02:42:02.148Z,0.29
2023-03-02T02:43:02.116Z,0.28
2023-03-02T02:44:02.108Z,0.28
2023-03-02T02:45:02.186Z,0.26
2023-03-02T02:46:02.198Z,0.25
2023-03-02T02:47:02.080Z,0.23
2023-03-02T02:48:02.150Z,0.19
2023-03-02T02:49:02.079Z,0.18
2023-03-02T02:50:02.094Z,0.18
2023-03-02T02:51:02.055Z,0.12
2023-03-02T02:52:02.033Z,0.10
2023-03-02T02:53:02.065Z,0.08
2023-03-02T02:54:01.992Z,0.04
2023-03-02T02:55:01.998Z,0.03
2023-03-02T02:56:02.013Z,-0.02
2023-03-02T02:57:01.973Z,-0.03
2023-03-02T02:58:01.975Z,-0.07
2023-03-02T02:59:01.965Z,-0.11
2023-03-02T03:00:01.952Z,-0.10
2023-03-02T03:01:01.983Z,-0.14
2023-03-02T03:02:01.973Z,-0.20
2023-03-02T03:03:01.940Z,-0.23
2023-03-02T03:04:02.018Z,-0.29
2023-03-02T03:05:01.891Z,-0.29
2023-03-02T03:06:01.884Z,-0.29
2023-03-02T03:07:01.862Z,-0.32
2023-03-02T03:08:01.887Z,-0.35
2023-03-02T03:09:01.848Z,-0.36
2023-03-02T03:10:01.910Z,-0.36
2023-03-02T03:11:01.826Z,-0.38
2023-03-02T03:12:01.868Z,-0.39
2023-03-02T03:13:01.837Z,-0.41
2023-03-02T03:14:01.803Z,-0.41
2023-03-02T03:15:01.802Z,-0.41
2023-03-02T03:16:01.794Z,-0.43
2023-03-02T03:17:01.829Z,-0.43
2023-03-02T03:18:01.756Z,-0.43
2023-03-02T03:19:01.802Z,-0.43
2023-03-02T03:20:01.745Z,-0.44
2023-03-02T03:21:01.731Z,-0.44
2023-03-02T03:22:01.707Z,-0.47
2023-03-02T03:23:01.725Z,-0.46
2023-03-02T03:24:01.689Z,-0.44
2023-03-02T03:25:01.717Z,-0.43
2023-03-02T03:26:01.705Z,-0.39
2023-03-02T03:27:01.667Z,-0.38
2023-03-02T03:28:01.635Z,-0.41
2023-03-02T03:29:01.650Z,-0.41
2023-03-02T03:30:01.630Z,-0.41
2023-03-02T03:31:01.700Z,-0.39
2023-03-02T03:32:01.653Z,-0.38
2023-03-02T03:33:01.608Z,-0.36
2023-03-02T03:34:01.583Z,-0.31
2023-03-02T03:35:01.634Z,-0.32
2023-03-02T03:36:01.651Z,-0.28
2023-03-02T03:37:01.623Z,-0.28
2023-03-02T03:38:01.542Z,-0.28
2023-03-02T03:39:01.546Z,-0.26
2023-03-02T03:40:01.552Z,-0.29
2023-03-02T03:41:01.547Z,-0.32
2023-03-02T03:42:01.539Z,-0.32
2023-03-02T03:43:01.527Z,-0.36
2023-03-02T03:44:01.487Z,-0.38
2023-03-02T03:45:01.502Z,-0.41
2023-03-02T03:46:01.521Z,-0.43
2023-03-02T03:47:01.462Z,-0.44
2023-03-02T03:48:01.440Z,-0.44
2023-03-02T03:49:01.442Z,-0.39
2023-03-02T03:50:01.438Z,-0.36
2023-03-02T03:51:01.424Z,-0.31
2023-03-02T03:52:01.429Z,-0.25
2023-03-02T03:53:03.731Z,-0.18
2023-03-02T03:54:01.376Z,-0.14
2023-03-02T03:55:01.426Z,-0.08
2023-03-02T03:56:01.377Z,-0.07
2023-03-02T03:57:01.401Z,-0.08
2023-03-02T03:58:01.374Z,-0.06
2023-03-02T03:59:01.368Z,-0.11
2023-03-02T04:00:01.340Z,-0.14
2023-03-02T04:01:01.373Z,-0.15
2023-03-02T04:02:01.347Z,-0.17
2023-03-02T04:03:01.333Z,-0.20
2023-03-02T04:04:01.279Z,-0.23
2023-03-02T04:05:01.302Z,-0.25
2023-03-02T04:06:01.287Z,-0.25
2023-03-02T04:07:01.272Z,-0.25
2023-03-02T04:08:01.248Z,-0.26
2023-03-02T04:09:01.245Z,-0.26
2023-03-02T04:10:01.215Z,-0.28
2023-03-02T04:11:01.222Z,-0.28
2023-03-02T04:12:01.217Z,-0.28
2023-03-02T04:13:01.182Z,-0.26
2023-03-02T04:14:01.202Z,-0.26
2023-03-02T04:15:01.170Z,-0.28
2023-03-02T04:16:01.198Z,-0.28
2023-03-02T04:17:01.195Z,-0.29
2023-03-02T04:18:01.154Z,-0.32
2023-03-02T04:19:01.137Z,-0.36
2023-03-02T04:20:01.123Z,-0.39
2023-03-02T04:21:01.144Z,-0.39
2023-03-02T04:22:01.114Z,-0.39
2023-03-02T04:23:01.107Z,-0.41
2023-03-02T04:24:01.091Z,-0.41
2023-03-02T04:25:01.090Z,-0.39
2023-03-02T04:26:01.061Z,-0.43
2023-03-02T04:27:01.072Z,-0.44
2023-03-02T04:28:01.150Z,-0.43
2023-03-02T04:29:01.083Z,-0.43
2023-03-02T04:30:01.499Z,-0.47
2023-03-02T04:31:01.088Z,-0.49
2023-03-02T04:32:01.099Z,-0.50
2023-03-02T04:33:01.007Z,-0.56
2023-03-02T04:34:01.035Z,-0.57
2023-03-02T04:35:01.001Z,-0.61
2023-03-02T04:36:01.063Z,-0.62
2023-03-02T04:37:00.964Z,-0.62
2023-03-02T04:38:00.953Z,-0.64
2023-03-02T04:39:00.983Z,-0.61
2023-03-02T04:40:01.021Z,-0.57
2023-03-02T04:41:01.014Z,-0.59
2023-03-02T04:42:00.919Z,-0.57
2023-03-02T04:43:00.910Z,-0.56
2023-03-02T04:44:00.916Z,-0.56
2023-03-02T04:45:00.936Z,-0.61
2023-03-02T04:46:00.919Z,-0.62
2023-03-02T04:47:00.943Z,-0.64
2023-03-02T04:48:00.875Z,-0.65
2023-03-02T04:49:00.851Z,-0.65
2023-03-02T04:50:00.834Z,-0.68
2023-03-02T04:51:00.865Z,-0.70
2023-03-02T04:52:00.841Z,-0.71
2023-03-02T04:53:00.852Z,-0.72
2023-03-02T04:54:00.801Z,-0.74
2023-03-02T04:55:00.794Z,-0.75
2023-03-02T04:56:00.788Z,-0.75
2023-03-02T04:57:00.773Z,-0.78
2023-03-02T04:58:00.767Z,-0.77
2023-03-02T04:59:00.762Z,-0.82
2023-03-02T05:00:00.733Z,-0.82
2023-03-02T05:01:00.744Z,-0.82
2023-03-02T05:02:00.764Z,-0.85
2023-03-02T05:03:00.750Z,-0.86
2023-03-02T05:04:02.808Z,-0.90
2023-03-02T05:05:00.831Z,-0.86
2023-03-02T05:06:00.682Z,-0.90
2023-03-02T05:07:00.703Z,-0.90
2023-03-02T05:08:00.652Z,-0.93
2023-03-02T05:09:00.667Z,-0.94
2023-03-02T05:10:00.667Z,-0.93
2023-03-02T05:11:00.633Z,-0.94
2023-03-02T05:12:00.658Z,-0.93
2023-03-02T05:13:00.605Z,-0.94
2023-03-02T05:14:00.631Z,-0.94
2023-03-02T05:15:00.606Z,-0.96
2023-03-02T05:16:00.616Z,-0.97
2023-03-02T05:17:00.593Z,-0.97
2023-03-02T05:18:00.562Z,-0.96
2023-03-02T05:19:00.562Z,-0.97
2023-03-02T05:20:00.536Z,-0.96
2023-03-02T05:21:00.538Z,-0.93
2023-03-02T05:22:00.525Z,-0.93
2023-03-02T05:23:00.551Z,-0.93
2023-03-02T05:24:00.500Z,-0.91
2023-03-02T05:25:00.530Z,-0.90
2023-03-02T05:26:00.491Z,-0.90
2023-03-02T05:27:00.471Z,-0.89
2023-03-02T05:28:00.494Z,-0.90
2023-03-02T05:29:00.466Z,-0.91
2023-03-02T05:30:00.434Z,-0.93
2023-03-02T05:31:00.481Z,-0.93
2023-03-02T05:32:00.424Z,-0.93
2023-03-02T05:33:00.438Z,-0.94
2023-03-02T05:34:00.404Z,-0.96
2023-03-02T05:35:00.398Z,-0.94
2023-03-02T05:36:00.428Z,-0.97
2023-03-02T05:37:00.399Z,-0.97
2023-03-02T05:38:00.371Z,-0.97
2023-03-02T05:39:00.320Z,-0.96
2023-03-02T05:40:00.340Z,-0.94
2023-03-02T05:41:00.280Z,-0.96
2023-03-02T05:42:00.281Z,-0.94
2023-03-02T05:43:00.247Z,-0.94
2023-03-02T05:44:00.254Z,-0.94
2023-03-02T05:45:00.253Z,-0.91
2023-03-02T05:46:00.219Z,-0.91
2023-03-02T05:47:00.373Z,-0.90
2023-03-02T05:48:00.196Z,-0.86
2023-03-02T05:49:00.201Z,-0.89
2023-03-02T05:50:00.168Z,-0.89
2023-03-02T05:51:00.194Z,-0.89
2023-03-02T05:52:00.164Z,-0.86
2023-03-02T05:53:00.244Z,-0.85
2023-03-02T05:54:00.137Z,-0.89
2023-03-02T05:55:00.144Z,-0.89
2023-03-02T05:56:00.148Z,-0.90
2023-03-02T05:57:00.142Z,-0.90
2023-03-02T05:58:00.129Z,-0.91
2023-03-02T05:59:00.156Z,-0.89
2023-03-02T06:00:00.086Z,-0.89
2023-03-02T06:01:00.067Z,-0.90
2023-03-02T06:02:00.222Z,-0.90
2023-03-02T06:03:00.151Z,-0.91
2023-03-02T06:04:00.038Z,-0.89
2023-03-02T06:05:00.036Z,-0.91
2023-03-02T06:06:00.089Z,-0.90
2023-03-02T06:07:00.036Z,-0.91
2023-03-02T06:08:00.033Z,-0.91
2023-03-02T06:09:00.005Z,-0.89
2023-03-02T06:09:59.972Z,-0.89
2023-03-02T06:11:00.003Z,-0.86
2023-03-02T06:11:59.990Z,-0.86
2023-03-02T06:12:59.980Z,-0.83
2023-03-02T06:13:59.977Z,-0.85
2023-03-02T06:14:59.922Z,-0.83
2023-03-02T06:15:59.989Z,-0.78
2023-03-02T06:16:59.955Z,-0.77
2023-03-02T06:17:59.927Z,-0.74
2023-03-02T06:18:59.917Z,-0.70
2023-03-02T06:19:59.915Z,-0.64
2023-03-02T06:20:59.913Z,-0.59
2023-03-02T06:21:59.905Z,-0.59
2023-03-02T06:22:59.844Z,-0.52
2023-03-02T06:23:59.840Z,-0.50
2023-03-02T06:24:59.860Z,-0.47
2023-03-02T06:25:59.840Z,-0.47
2023-03-02T06:26:59.831Z,-0.44
2023-03-02T06:27:59.816Z,-0.44
2023-03-02T06:28:59.842Z,-0.43
2023-03-02T06:29:59.834Z,-0.35
2023-03-02T06:30:59.769Z,-0.34
2023-03-02T06:31:59.853Z,-0.31
2023-03-02T06:32:59.752Z,-0.25
2023-03-02T06:34:00.148Z,-0.26
2023-03-02T06:34:59.785Z,-0.23
2023-03-02T06:35:59.816Z,-0.25
2023-03-02T06:36:59.755Z,-0.25
2023-03-02T06:37:59.696Z,-0.23
2023-03-02T06:38:59.737Z,-0.21
2023-03-02T06:39:59.691Z,-0.20
2023-03-02T06:40:59.671Z,-0.20
2023-03-02T06:41:59.710Z,-0.20
2023-03-02T06:42:59.692Z,-0.20
2023-03-02T06:43:59.630Z,-0.18
2023-03-02T06:44:59.658Z,-0.23
2023-03-02T06:45:59.691Z,-0.25
2023-03-02T06:46:59.610Z,-0.26
2023-03-02T06:47:59.626Z,-0.26
2023-03-02T06:48:59.606Z,-0.26
2023-03-02T06:49:59.603Z,-0.28
2023-03-02T06:50:59.607Z,-0.26
2023-03-02T06:51:59.566Z,-0.29
2023-03-02T06:52:59.556Z,-0.28
2023-03-02T06:53:59.539Z,-0.31
2023-03-02T06:54:59.543Z,-0.29
2023-03-02T06:55:59.519Z,-0.31
2023-03-02T06:56:59.526Z,-0.28
2023-03-02T06:57:59.531Z,-0.26
2023-03-02T06:58:59.528Z,-0.28
2023-03-02T06:59:59.511Z,-0.28
2023-03-02T07:00:59.508Z,-0.28
2023-03-02T07:01:59.456Z,-0.29
2023-03-02T07:02:59.459Z,-0.29
2023-03-02T07:03:59.519Z,-0.29
2023-03-02T07:04:59.442Z,-0.29
2023-03-02T07:05:59.451Z,-0.29
2023-03-02T07:06:59.423Z,-0.26
2023-03-02T07:07:59.422Z,-0.28
2023-03-02T07:08:59.399Z,-0.26
2023-03-02T07:09:59.362Z,-0.25
2023-03-02T07:10:59.374Z,-0.25
2023-03-02T07:11:59.380Z,-0.25
2023-03-02T07:12:59.335Z,-0.23
2023-03-02T07:13:59.348Z,-0.23
2023-03-02T07:14:59.334Z,-0.21
2023-03-02T07:15:59.379Z,-0.21
2023-03-02T07:16:59.396Z,-0.20
2023-03-02T07:17:59.301Z,-0.18
2023-03-02T07:18:59.288Z,-0.18
2023-03-02T07:19:59.276Z,-0.17
2023-03-02T07:20:59.274Z,-0.13
2023-03-02T07:21:59.263Z,-0.06
2023-03-02T07:22:59.257Z,-0.03
2023-03-02T07:23:59.268Z,0.00
2023-03-02T07:24:59.238Z,0.00
2023-03-02T07:25:59.212Z,0.03
2023-03-02T07:26:59.187Z,0.01
2023-03-02T07:27:59.227Z,0.05
2023-03-02T07:28:59.307Z,0.07
2023-03-02T07:29:59.240Z,0.07
2023-03-02T07:30:59.199Z,0.10
2023-03-02T07:31:59.183Z,0.08
2023-03-02T07:32:59.197Z,0.10
2023-03-02T07:33:59.157Z,0.15
2023-03-02T07:34:59.136Z,0.19
2023-03-02T07:35:59.160Z,0.22
2023-03-02T07:36:59.099Z,0.23
2023-03-02T07:37:59.100Z,0.26
2023-03-02T07:38:59.141Z,0.29
2023-03-02T07:40:00.682Z,0.28
2023-03-02T07:40:59.064Z,0.34
2023-03-02T07:41:59.079Z,0.34
2023-03-02T07:42:59.038Z,0.36
2023-03-02T07:43:59.074Z,0.37
2023-03-02T07:44:59.058Z,0.39
2023-03-02T07:45:59.667Z,0.43
2023-03-02T07:46:59.011Z,0.46
2023-03-02T07:47:59.003Z,0.47
2023-03-02T07:48:58.970Z,0.47
2023-03-02T07:49:58.985Z,0.50
2023-03-02T07:50:59.006Z,0.49
2023-03-02T07:51:58.997Z,0.52
2023-03-02T07:53:00.035Z,0.56
2023-03-02T07:53:58.952Z,0.58
2023-03-02T07:54:58.945Z,0.62
2023-03-02T07:55:58.926Z,0.62
2023-03-02T07:56:58.916Z,0.63
2023-03-02T07:57:58.940Z,0.63
2023-03-02T07:58:58.897Z,0.66
2023-03-02T07:59:58.866Z,0.69
2023-03-02T08:00:58.874Z,0.70
2023-03-02T08:01:59.055Z,0.73
2023-03-02T08:02:58.943Z,0.77
2023-03-02T08:03:58.866Z,0.81
2023-03-02T08:04:58.823Z,0.83
2023-03-02T08:05:58.843Z,0.86
2023-03-02T08:06:58.848Z,0.88
2023-03-02T08:07:58.812Z,0.92
2023-03-02T08:08:58.802Z,0.96
2023-03-02T08:09:58.779Z,1.02
2023-03-02T08:10:58.771Z,1.02
2023-03-02T08:11:58.753Z,1.08
2023-03-02T08:12:58.754Z,1.10
2023-03-02T08:13:58.770Z,1.13
2023-03-02T08:14:58.756Z,1.17
2023-03-02T08:15:58.759Z,1.19
2023-03-02T08:16:58.723Z,1.17
2023-03-02T08:17:58.694Z,1.17
2023-03-02T08:19:00.037Z,1.17
2023-03-02T08:19:58.697Z,1.22
2023-03-02T08:20:58.671Z,1.24
2023-03-02T08:21:58.689Z,1.28
2023-03-02T08:22:58.632Z,1.32
2023-03-02T08:23:58.667Z,1.34
2023-03-02T08:24:58.675Z,1.37
2023-03-02T08:25:58.656Z,1.41
2023-03-02T08:26:58.626Z,1.42
2023-03-02T08:27:58.601Z,1.49
2023-03-02T08:28:58.575Z,1.52
2023-03-02T08:29:58.614Z,1.56
2023-03-02T08:30:58.587Z,1.60
2023-03-02T08:31:58.776Z,1.66
2023-03-02T08:32:58.551Z,1.68
2023-03-02T08:33:58.581Z,1.70
2023-03-02T08:34:58.530Z,1.71
2023-03-02T08:35:58.695Z,1.76
2023-03-02T08:36:58.550Z,1.78
2023-03-02T08:37:58.505Z,1.85
2023-03-02T08:38:58.525Z,1.87
2023-03-02T08:39:58.931Z,1.89
2023-03-02T08:40:58.462Z,1.94
2023-03-02T08:41:58.442Z,1.99
2023-03-02T08:42:58.453Z,2.04
2023-03-02T08:43:58.438Z,2.08
2023-03-02T08:44:58.488Z,2.11
2023-03-02T08:45:58.459Z,2.14
2023-03-02T08:46:58.400Z,2.15
2023-03-02T08:47:58.426Z,2.18
2023-03-02T08:48:58.396Z,2.20
2023-03-02T08:49:58.367Z,2.25
2023-03-02T08:50:58.353Z,2.29
2023-03-02T08:51:58.412Z,2.32
2023-03-02T08:52:58.355Z,2.38
2023-03-02T08:53:58.371Z,2.44
2023-03-02T08:54:58.375Z,2.47
2023-03-02T08:55:58.333Z,2.54
2023-03-02T08:56:58.304Z,2.57
2023-03-02T08:57:58.276Z,2.61
2023-03-02T08:58:58.285Z,2.67
2023-03-02T08:59:58.278Z,2.71
2023-03-02T09:00:58.304Z,2.75
2023-03-02T09:01:58.253Z,2.75
2023-03-02T09:02:58.242Z,2.82
2023-03-02T09:03:58.228Z,2.90
2023-03-02T09:04:58.277Z,2.95
2023-03-02T09:05:58.250Z,3.00
2023-03-02T09:06:58.208Z,3.04
2023-03-02T09:07:58.236Z,3.10
2023-03-02T09:08:58.183Z,3.14
2023-03-02T09:09:58.233Z,3.19
2023-03-02T09:10:58.176Z,3.26
2023-03-02T09:11:58.166Z,3.29
2023-03-02T09:12:58.131Z,3.32
2023-03-02T09:13:58.134Z,3.36
2023-03-02T09:14:58.126Z,3.41
2023-03-02T09:15:58.098Z,3.45
2023-03-02T09:16:58.181Z,3.45
2023-03-02T09:17:58.074Z,3.48
2023-03-02T09:18:58.084Z,3.48
2023-03-02T09:19:58.067Z,3.58
2023-03-02T09:20:58.072Z,3.63
2023-03-02T09:21:58.062Z,3.65
2023-03-02T09:22:58.016Z,3.69
2023-03-02T09:23:58.065Z,3.74
2023-03-02T09:24:58.039Z,3.73
2023-03-02T09:25:58.020Z,3.80
2023-03-02T09:26:57.993Z,3.81
2023-03-02T09:27:58.063Z,3.87
2023-03-02T09:28:57.992Z,3.94
2023-03-02T09:29:57.988Z,3.99
2023-03-02T09:30:57.945Z,4.01
2023-03-02T09:31:58.046Z,4.04
2023-03-02T09:32:58.196Z,4.06
2023-03-02T09:33:57.988Z,4.13
2023-03-02T09:34:57.886Z,4.19
2023-03-02T09:35:57.910Z,4.24
2023-03-02T09:36:57.916Z,4.28
2023-03-02T09:37:58.000Z,4.31
2023-03-02T09:38:57.900Z,4.32
2023-03-02T09:39:57.868Z,4.38
2023-03-02T09:40:57.845Z,4.42
2023-03-02T09:41:57.860Z,4.44
2023-03-02T09:42:57.828Z,4.49
2023-03-02T09:43:59.916Z,4.55
2023-03-02T09:44:57.807Z,4.59
2023-03-02T09:45:57.943Z,4.63
2023-03-02T09:46:57.780Z,4.70
2023-03-02T09:47:57.780Z,4.75
2023-03-02T09:48:57.759Z,4.86
2023-03-02T09:49:57.785Z,4.93
2023-03-02T09:50:57.749Z,5.00
2023-03-02T09:51:57.809Z,5.05
2023-03-02T09:52:57.721Z,5.05
2023-03-02T09:53:57.768Z,5.08
2023-03-02T09:54:57.697Z,5.15
2023-03-02T09:55:57.707Z,5.25
2023-03-02T09:56:57.753Z,5.33
2023-03-02T09:57:57.659Z,5.33
2023-03-02T09:58:57.670Z,5.36
2023-03-02T10:00:03.767Z,5.43
2023-03-02T10:00:57.647Z,5.48
2023-03-02T10:01:57.628Z,5.54
2023-03-02T10:03:05.160Z,5.59
2023-03-02T10:03:57.692Z,5.62
2023-03-02T10:04:57.577Z,5.68
2023-03-02T10:05:57.635Z,5.69
2023-03-02T10:06:57.729Z,5.72
2023-03-02T10:07:59.356Z,5.73
2023-03-02T10:08:57.550Z,5.76
2023-03-02T10:09:57.572Z,5.73
2023-03-02T10:10:57.539Z,5.76
2023-03-02T10:11:57.558Z,5.82
2023-03-02T10:12:57.527Z,5.80
2023-03-02T10:13:57.488Z,5.84
2023-03-02T10:14:58.168Z,5.89
2023-03-02T10:15:57.576Z,5.91
2023-03-02T10:16:57.490Z,5.99
2023-03-02T10:17:57.465Z,6.02
2023-03-02T10:18:57.464Z,6.07
2023-03-02T10:19:57.450Z,6.16
2023-03-02T10:20:57.426Z,6.17
2023-03-02T10:21:57.431Z,6.20
2023-03-02T10:22:57.386Z,6.24
2023-03-02T10:23:57.425Z,6.28
2023-03-02T10:24:57.437Z,6.31
2023-03-02T10:25:57.376Z,6.33
2023-03-02T10:26:57.393Z,6.41
2023-03-02T10:27:57.385Z,6.41
2023-03-02T10:28:57.370Z,6.42
2023-03-02T10:29:57.384Z,6.45
2023-03-02T10:30:57.358Z,6.48
2023-03-02T10:31:57.436Z,6.54
2023-03-02T10:32:57.328Z,6.62
2023-03-02T10:33:57.343Z,6.64
2023-03-02T10:34:57.307Z,6.70
2023-03-02T10:35:57.279Z,6.79
2023-03-02T10:36:57.242Z,6.87
2023-03-02T10:37:57.307Z,6.92
2023-03-02T10:38:57.249Z,6.97
2023-03-02T10:39:57.252Z,6.95
2023-03-02T10:40:57.212Z,6.88
2023-03-02T10:41:57.255Z,6.92
2023-03-02T10:42:57.252Z,6.99
2023-03-02T10:43:57.223Z,7.03
2023-03-02T10:44:57.183Z,7.02
2023-03-02T10:45:57.193Z,7.05
2023-03-02T10:46:57.186Z,7.06
2023-03-02T10:47:57.557Z,7.17
2023-03-02T10:48:57.162Z,7.24
2023-03-02T10:49:57.122Z,7.31
2023-03-02T10:50:57.125Z,7.38
2023-03-02T10:51:57.128Z,7.40
2023-03-02T10:53:00.735Z,7.42
2023-03-02T10:53:57.091Z,7.42
2023-03-02T10:54:57.083Z,7.45
2023-03-02T10:55:57.129Z,7.47
2023-03-02T10:56:57.040Z,7.50
2023-03-02T10:57:57.036Z,7.54
2023-03-02T10:58:57.049Z,7.58
2023-03-02T10:59:57.054Z,7.57
2023-03-02T11:00:57.075Z,7.53
2023-03-02T11:01:57.066Z,7.51
2023-03-02T11:02:57.022Z,7.54
2023-03-02T11:03:56.991Z,7.58
2023-03-02T11:04:57.779Z,7.60
2023-03-02T11:05:56.977Z,7.60
2023-03-02T11:06:56.968Z,7.57
2023-03-02T11:07:56.983Z,7.61
2023-03-02T11:08:56.963Z,7.61
2023-03-02T11:09:56.931Z,7.66
2023-03-02T11:11:00.001Z,7.69
2023-03-02T11:11:57.070Z,7.72
2023-03-02T11:12:56.891Z,7.73
2023-03-02T11:13:56.896Z,7.76
2023-03-02T11:14:56.877Z,7.79
2023-03-02T11:15:56.954Z,7.76
2023-03-02T11:16:56.836Z,7.79
2023-03-02T11:17:56.842Z,7.80
2023-03-02T11:18:56.813Z,7.80
2023-03-02T11:19:56.850Z,7.88
2023-03-02T11:20:56.823Z,7.80
2023-03-02T11:21:56.803Z,7.80
2023-03-02T11:22:56.773Z,7.77
2023-03-02T11:23:56.827Z,7.80
2023-03-02T11:24:56.763Z,7.77
2023-03-02T11:25:56.759Z,7.83
2023-03-02T11:26:56.744Z,7.87
2023-03-02T11:27:56.770Z,7.80
2023-03-02T11:28:56.707Z,7.73
2023-03-02T11:29:56.762Z,7.72
2023-03-02T11:30:56.686Z,7.77
2023-03-02T11:31:56.926Z,7.83
2023-03-02T11:32:56.663Z,7.93
2023-03-02T11:33:59.816Z,7.97
2023-03-02T11:34:56.664Z,8.03
2023-03-02T11:35:56.684Z,8.08
2023-03-02T11:36:56.709Z,8.12
2023-03-02T11:37:56.650Z,8.16
2023-03-02T11:38:56.620Z,8.16
2023-03-02T11:39:56.621Z,8.16
2023-03-02T11:40:56.606Z,8.18
2023-03-02T11:41:56.577Z,8.19
2023-03-02T11:42:56.588Z,8.23
2023-03-02T11:43:56.586Z,8.20
2023-03-02T11:44:56.553Z,8.26
2023-03-02T11:45:56.539Z,8.30
2023-03-02T11:46:56.631Z,8.33
2023-03-02T11:48:02.479Z,8.37
2023-03-02T11:48:56.509Z,8.36
2023-03-02T11:49:56.485Z,8.28
2023-03-02T11:50:56.537Z,8.33
2023-03-02T11:58:04.280Z,8.41
2023-03-02T11:58:09.238Z,8.74
2023-03-02T11:59:09.234Z,8.78
2023-03-02T12:00:09.182Z,8.81
2023-03-02T12:01:09.199Z,8.84
2023-03-02T12:02:09.190Z,8.79
2023-03-02T12:03:09.176Z,8.74
2023-03-02T12:04:09.166Z,8.74
2023-03-02T12:05:09.154Z,8.76
2023-03-02T12:06:09.144Z,8.79
2023-03-02T12:07:09.162Z,8.81
2023-03-02T12:08:09.137Z,8.84
2023-03-02T12:09:09.148Z,8.78
2023-03-02T12:10:09.061Z,8.76
2023-03-02T12:11:09.098Z,8.79
2023-03-02T12:12:09.139Z,8.82
2023-03-02T12:13:09.097Z,8.89
2023-03-02T12:14:09.018Z,8.89
2023-03-02T12:15:09.013Z,8.91
2023-03-02T12:16:09.079Z,8.95
2023-03-02T12:17:09.018Z,8.97
2023-03-02T12:18:09.035Z,8.95
2023-03-02T12:19:08.976Z,8.95
2023-03-02T12:20:09.051Z,8.94
2023-03-02T12:21:08.962Z,8.97
2023-03-02T12:22:08.936Z,8.99
2023-03-02T12:23:08.945Z,9.04
2023-03-02T12:24:08.915Z,9.08
2023-03-02T12:25:08.933Z,9.13
2023-03-02T12:26:08.918Z,9.16
2023-03-02T12:27:08.964Z,9.18
2023-03-02T12:28:08.937Z,9.23
2023-03-02T12:29:08.891Z,9.25
2023-03-02T12:30:08.882Z,9.26
2023-03-02T12:31:08.932Z,9.23
2023-03-02T12:32:08.968Z,9.25
2023-03-02T12:33:08.854Z,9.21
2023-03-02T12:34:08.849Z,9.19
2023-03-02T12:35:08.839Z,9.22
2023-03-02T12:36:08.774Z,9.23
2023-03-02T12:37:08.901Z,9.31
2023-03-02T12:38:08.814Z,9.29
2023-03-02T12:39:08.804Z,9.29
2023-03-02T12:40:08.787Z,9.29
2023-03-02T12:41:08.779Z,9.29
2023-03-02T12:42:08.788Z,9.29
2023-03-02T12:43:08.755Z,9.25
2023-03-02T12:44:08.788Z,9.26
2023-03-02T12:45:08.730Z,9.26
2023-03-02T12:46:08.722Z,9.31
2023-03-02T12:47:08.827Z,9.32
2023-03-02T12:48:08.798Z,9.37
2023-03-02T12:49:10.163Z,9.43
2023-03-02T12:50:08.663Z,9.50
2023-03-02T12:51:08.689Z,9.56
2023-03-02T12:52:08.784Z,9.58
2023-03-02T12:53:08.633Z,9.59
2023-03-02T12:54:08.624Z,9.62
2023-03-02T12:55:08.609Z,9.66
2023-03-02T12:56:08.683Z,9.68
2023-03-02T12:57:08.585Z,9.66
2023-03-02T12:58:08.969Z,9.64
2023-03-02T12:59:08.584Z,9.64
2023-03-02T13:00:08.550Z,9.64
2023-03-02T13:01:08.556Z,9.65
2023-03-02T13:02:08.536Z,9.66
2023-03-02T13:03:08.546Z,9.69
2023-03-02T13:04:08.616Z,9.76
2023-03-02T13:05:08.536Z,9.82
2023-03-02T13:06:08.462Z,9.86
2023-03-02T13:07:08.466Z,9.84
2023-03-02T13:08:08.518Z,9.84
2023-03-02T13:09:08.526Z,9.84
2023-03-02T13:10:08.528Z,9.84
2023-03-02T13:11:08.435Z,9.86
2023-03-02T13:12:08.410Z,9.86
2023-03-02T13:13:08.473Z,9.89
2023-03-02T13:14:08.381Z,9.92